Latest Weather Observations for Sydney Airport

IDN60901

Issued at 8:25 pm EST Monday 28 July 2014 (issued every 10 minutes, with the page automatically refreshed every 10 minutes)

About weather observations | Map of Sydney area stations | Latest observations for Sydney area | Other Formats
Station Details ID: 066037 Name: SYDNEY AIRPORT AMO Lat: -33.95 Lon: 151.17 Height: 6.0 m
Data from the previous 72 hours. | See also: Recent months at Sydney Airport
Date/Time
EST
Tmp

°C
App
Tmp
°C
Dew
Point
°C
Rel
Hum
%
Delta-T

°C
Wind Press
QNH
hPa
Press
MSL
hPa
Rain
since
9 am
mm
Dir
 
Spd
km/h
Gust
km/h
Spd
kts
Gust
kts
28/08:00pm 15.3 12.6 5.4 51 4.7 NW 9 11 5 6 1019.1 1019.1 0.0
28/07:30pm 16.2 13.3 4.4 45 5.5 NNW 9 11 5 6 1018.9 - 0.0
28/07:00pm 16.6 13.6 4.2 43 5.8 NW 9 11 5 6 1018.8 1018.8 0.0
28/06:30pm 16.5 13.5 4.3 44 5.7 NW 9 13 5 7 1018.8 - 0.0
28/06:00pm 16.6 13.2 3.9 42 5.9 NNW 11 15 6 8 1018.6 1018.6 0.0
28/05:30pm 17.1 14.0 3.4 40 6.3 NW 9 13 5 7 1018.3 - 0.0
28/05:00pm 17.8 14.2 2.7 36 6.9 NNW 11 15 6 8 1018.1 1018.1 0.0
28/04:30pm 18.0 14.4 3.0 36 6.9 NNW 11 13 6 7 1018.0 - 0.0
28/04:00pm 18.4 14.3 2.4 34 7.3 NW 13 17 7 9 1018.0 1018.0 0.0
28/03:30pm 18.7 13.6 2.9 35 7.3 NW 19 28 10 15 1018.0 - 0.0
28/03:00pm 18.8 13.5 2.8 34 7.4 NW 20 28 11 15 1017.8 1017.8 0.0
28/02:30pm 18.7 13.0 2.6 34 7.4 WNW 22 35 12 19 1018.0 - 0.0
28/02:00pm 18.5 10.6 2.3 34 7.4 WNW 33 44 18 24 1018.0 1018.0 0.0
28/01:30pm 18.3 11.7 1.9 33 7.4 W 26 32 14 17 1018.2 - 0.0
28/01:00pm 19.3 14.7 1.6 30 8.0 W 15 26 8 14 1018.6 1018.6 0.0
28/12:30pm 17.0 10.8 2.3 37 6.6 W 24 30 13 16 1019.4 - 0.0
28/12:00pm 17.1 9.8 2.5 37 6.6 W 30 41 16 22 1019.8 1019.8 0.0
28/11:30am 17.5 11.0 2.5 36 6.8 W 26 37 14 20 1019.9 - 0.0
28/11:00am 17.3 11.2 2.8 38 6.6 W 24 33 13 18 1020.7 1020.7 0.0
28/10:30am 16.0 10.3 2.9 41 5.9 W 22 30 12 16 1020.8 - 0.0
28/10:00am 16.2 10.6 3.2 41 5.9 WNW 22 30 12 16 1021.0 1021.0 0.0
28/09:30am 13.8 10.0 3.9 51 4.5 NW 13 19 7 10 1021.1 - 0.0
28/09:00am 13.4 9.2 3.6 51 4.4 WNW 15 19 8 10 1021.3 1021.3 0.0
28/08:30am 12.4 7.2 3.4 54 4.0 NNW 20 26 11 14 1021.0 - 0.0
28/08:00am 10.4 4.9 4.1 65 2.8 NNW 22 28 12 15 1021.2 1021.2 0.0
28/07:30am 9.9 6.2 4.2 67 2.5 WNW 13 19 7 10 1021.5 - 0.0
28/07:00am 9.8 6.0 4.1 67 2.5 W 13 17 7 9 1021.5 1021.5 0.0
28/06:30am 9.7 5.9 4.0 67 2.5 WNW 13 19 7 10 1021.2 - 0.0
28/06:00am 10.0 5.1 4.1 67 2.6 NW 19 20 10 11 1020.7 1020.7 0.0
28/05:30am 10.1 5.9 4.0 66 2.7 NNW 15 19 8 10 1020.1 - 0.0
28/05:00am 9.5 5.3 4.0 68 2.4 NNW 15 19 8 10 1020.4 1020.4 0.0
28/04:30am 9.2 4.3 4.2 71 2.2 N 19 20 10 11 1020.4 - 0.0
28/04:00am 9.5 7.0 3.7 67 2.5 NNW 6 9 3 5 1020.6 1020.6 0.0
28/03:30am 9.3 6.3 4.0 69 2.3 N 9 11 5 6 1020.9 - 0.0
28/03:00am 9.4 6.5 4.4 71 2.2 W 9 13 5 7 1021.3 1021.3 0.0
28/02:30am 9.2 5.9 4.4 72 2.1 NNW 11 13 6 7 1021.4 - 0.0
28/02:00am 10.2 7.2 4.3 67 2.6 NNW 9 11 5 6 1021.5 1021.5 0.0
28/01:30am 9.8 7.3 4.9 71 2.2 N 7 11 4 6 1021.4 - 0.0
28/01:00am 10.0 6.1 5.4 73 2.1 WSW 15 19 8 10 1021.8 1021.8 0.0
28/12:30am 9.7 5.1 5.5 75 1.9 WSW 19 22 10 12 1021.7 - 0.0
28/12:00am 10.0 8.0 6.1 77 1.8 N 6 6 3 3 1021.4 1021.4 0.0
 
Date/Time
EST
Tmp

°C
App
Tmp
°C
Dew
Point
°C
Rel
Hum
%
Delta-T

°C
Wind Press
QNH
hPa
Press
MSL
hPa
Rain
since
9 am
mm
Dir
 
Spd
km/h
Gust
km/h
Spd
kts
Gust
kts
27/11:30pm 11.5 9.3 6.4 71 2.4 WNW 7 9 4 5 1021.6 - 0.0
27/11:00pm 11.6 9.0 6.3 70 2.5 NW 9 13 5 7 1022.0 1022.0 0.0
27/10:30pm 12.9 10.4 4.8 58 3.7 N 7 9 4 5 1022.2 - 0.0
27/10:00pm 13.2 10.9 4.9 57 3.8 WSW 6 11 3 6 1022.5 1022.5 0.0
27/09:30pm 13.2 10.7 4.9 57 3.8 WSW 7 15 4 8 1022.8 - 0.0
27/09:00pm 13.3 10.4 4.8 56 3.9 WSW 9 11 5 6 1023.0 1023.0 0.0
27/08:30pm 13.7 10.7 5.8 59 3.7 W 11 19 6 10 1023.3 - 0.0
27/08:00pm 13.6 9.8 5.7 59 3.7 WSW 15 17 8 9 1023.3 1023.3 0.0
27/07:30pm 14.3 12.3 7.3 63 3.4 WSW 7 11 4 6 1023.3 - 0.0
27/07:00pm 13.9 12.1 7.8 66 3.0 WSW 7 9 4 5 1023.2 1023.2 0.0
27/06:30pm 14.2 14.1 9.3 72 2.5 CALM 0 0 0 0 1022.7 - 0.0
27/06:00pm 15.3 13.4 7.4 59 3.9 SSE 7 9 4 5 1022.4 1022.4 0.0
27/05:30pm 15.2 12.4 6.8 57 4.1 SE 11 11 6 6 1021.9 - 0.0
27/05:00pm 15.7 12.5 6.7 55 4.4 SE 13 13 7 7 1021.5 1021.5 0.0
27/04:30pm 16.6 13.2 5.8 49 5.2 SE 13 15 7 8 1021.5 - 0.0
27/04:00pm 17.2 13.7 5.3 45 5.7 SSE 13 17 7 9 1021.4 1021.4 0.0
27/03:30pm 17.4 13.4 4.7 43 6.0 SSE 15 19 8 10 1021.5 - 0.0
27/03:00pm 17.0 13.7 6.6 50 5.1 SSE 13 17 7 9 1021.5 1021.5 0.0
27/02:30pm 17.4 13.3 6.4 48 5.4 SSE 17 22 9 12 1021.5 - 0.0
27/02:00pm 16.8 12.3 6.3 50 5.1 S 19 24 10 13 1021.7 1021.7 0.0
27/01:30pm 17.6 12.6 4.5 42 6.2 S 20 28 11 15 1021.7 - 0.0
27/01:00pm 17.9 13.8 6.3 46 5.7 S 17 22 9 12 1021.9 1021.9 0.0
27/12:30pm 17.7 14.5 5.2 43 6.0 SSW 11 15 6 8 1022.4 - 0.0
27/12:00pm 17.7 14.1 5.2 43 6.0 W 13 26 7 14 1022.9 1022.9 0.0
27/11:30am 17.5 13.7 5.7 46 5.7 WSW 15 26 8 14 1023.6 - 0.0
27/11:00am 16.8 12.8 5.0 45 5.6 W 15 20 8 11 1024.1 1024.1 0.0
27/10:30am 17.4 12.8 5.6 45 5.7 W 19 26 10 14 1024.5 - 0.0
27/10:00am 15.5 10.8 5.1 50 4.9 W 19 24 10 13 1024.8 1024.8 0.0
27/09:30am 15.1 10.4 5.3 52 4.6 W 19 26 10 14 1024.4 - 0.0
27/09:00am 14.4 8.9 5.7 56 4.1 W 24 32 13 17 1024.3 1024.3 1.2
27/08:30am 13.2 8.9 5.2 58 3.7 NW 17 24 9 13 1024.4 - 1.2
27/08:00am 12.0 8.4 5.0 62 3.2 NW 13 17 7 9 1024.0 1024.0 1.2
27/07:30am 10.7 7.5 4.9 67 2.6 N 11 13 6 7 1023.9 - 1.2
27/07:00am 9.6 6.0 4.9 72 2.1 NNW 13 19 7 10 1023.9 1023.9 1.2
27/06:30am 9.1 4.8 5.3 77 1.7 NW 17 22 9 12 1023.5 - 1.2
27/06:00am 9.0 5.1 5.4 78 1.6 NW 15 17 8 9 1023.0 1023.0 1.2
27/05:30am 9.3 5.3 5.0 74 1.9 NNW 15 17 8 9 1022.8 - 1.2
27/05:00am 9.4 5.1 5.2 75 1.9 NNW 17 19 9 10 1022.6 1022.6 1.2
27/04:30am 9.6 5.6 5.1 73 2.0 NNW 15 17 8 9 1022.7 - 1.2
27/04:00am 9.7 6.1 5.0 72 2.1 WNW 13 17 7 9 1022.7 1022.7 1.2
27/03:30am 10.0 4.0 5.1 71 2.2 W 26 30 14 16 1022.6 - 1.2
27/03:00am 10.1 4.8 5.2 71 2.2 W 22 30 12 16 1022.8 1022.8 1.2
27/02:30am 10.0 4.3 5.1 71 2.2 W 24 32 13 17 1022.9 - 1.2
27/02:00am 9.8 5.8 5.1 72 2.1 W 15 22 8 12 1022.9 1022.9 1.2
27/01:30am 10.6 8.2 5.1 69 2.5 NW 7 11 4 6 1022.9 - 1.2
27/01:00am 11.2 8.7 5.0 65 2.8 WNW 7 13 4 7 1022.8 1022.8 1.2
27/12:30am 11.3 8.1 5.2 66 2.8 NNW 11 13 6 7 1022.9 - 1.2
27/12:00am 11.5 9.1 5.1 65 2.9 N 7 9 4 5 1023.1 1023.1 1.2
 
Date/Time
EST
Tmp

°C
App
Tmp
°C
Dew
Point
°C
Rel
Hum
%
Delta-T

°C
Wind Press
QNH
hPa
Press
MSL
hPa
Rain
since
9 am
mm
Dir
 
Spd
km/h
Gust
km/h
Spd
kts
Gust
kts
26/11:30pm 11.5 8.0 5.6 67 2.7 W 13 17 7 9 1023.3 - 1.2
26/11:00pm 12.1 9.0 5.4 63 3.1 W 11 15 6 8 1023.1 1023.1 1.2
26/10:30pm 11.8 9.0 5.3 64 3.0 NW 9 13 5 7 1023.2 - 1.2
26/10:00pm 12.3 8.7 5.1 61 3.3 W 13 17 7 9 1023.1 1023.1 1.2
26/09:30pm 13.1 10.3 5.3 59 3.6 W 9 11 5 6 1023.0 - 1.2
26/09:00pm 13.4 8.5 5.2 57 3.8 W 20 22 11 12 1023.1 1023.1 1.2
26/08:30pm 13.5 9.2 5.3 57 3.8 W 17 22 9 12 1022.9 - 1.2
26/08:00pm 13.9 10.4 5.6 57 3.9 WSW 13 17 7 9 1022.7 1022.7 1.2
26/07:30pm 14.3 10.2 6.1 58 3.9 W 17 19 9 10 1022.5 - 1.2
26/07:00pm 15.7 11.5 5.6 51 4.8 W 17 24 9 13 1022.3 1022.3 1.2
26/06:30pm 15.7 12.8 6.7 55 4.4 W 11 17 6 9 1022.0 - 1.2
26/06:00pm 16.5 13.2 6.2 50 5.0 NW 13 15 7 8 1021.7 1021.7 1.2
26/05:30pm 17.1 13.6 5.4 46 5.6 NW 13 13 7 7 1021.1 - 1.2
26/05:00pm 17.8 14.2 5.1 43 6.1 NW 13 15 7 8 1020.9 1020.9 1.2
26/04:30pm 18.5 14.9 5.0 41 6.5 WNW 13 17 7 9 1020.7 - 1.2
26/04:00pm 19.0 15.3 4.3 38 7.0 NW 13 19 7 10 1020.6 1020.6 1.2
26/03:30pm 19.2 15.8 4.0 36 7.2 W 11 17 6 9 1020.5 - 1.2
26/03:00pm 18.7 15.8 8.2 50 5.4 W 13 19 7 10 1020.4 1020.4 1.2
26/02:30pm 18.7 15.5 9.8 56 4.7 WNW 17 20 9 11 1020.5 - 1.2
26/02:00pm 18.3 15.5 10.0 58 4.4 WNW 15 19 8 10 1020.2 1020.2 1.0
26/01:30pm 16.8 14.5 10.6 67 3.3 WNW 13 17 7 9 1020.5 - 1.0
26/01:00pm 16.6 14.6 11.6 72 2.7 NW 13 15 7 8 1021.1 1021.1 1.0
26/12:30pm 14.3 12.4 11.7 84 1.4 WNW 13 17 7 9 1022.1 - 1.0
26/12:00pm 13.8 11.8 11.5 86 1.2 NW 13 19 7 10 1022.6 1022.6 1.0
26/11:30am 13.3 11.0 11.8 91 0.8 WNW 15 19 8 10 1022.9 - 1.0
26/11:00am 12.8 9.2 11.7 93 0.6 W 22 32 12 17 1023.7 1023.7 1.0
26/10:30am 14.3 12.0 11.7 84 1.4 NNE 15 19 8 10 1022.7 - 1.0
26/10:00am 13.4 9.8 11.9 91 0.8 N 22 26 12 14 1024.0 1024.0 1.0
26/09:30am 13.4 10.9 12.3 93 0.6 N 17 19 9 10 1023.8 - 0.8
26/09:00am 13.1 11.6 12.0 93 0.6 W 11 17 6 9 1024.5 1024.5 2.6
26/08:44am 13.3 11.5 12.2 93 0.6 W 13 24 7 13 1024.3 - 2.2
26/08:30am 12.9 12.2 12.0 94 0.5 SW 7 15 4 8 1024.0 - 2.2
26/08:00am 12.6 11.5 11.8 95 0.4 SW 9 13 5 7 1024.0 1024.0 2.2
26/07:52am 12.7 11.2 11.8 94 0.5 WSW 11 17 6 9 1024.2 - 2.2
26/07:30am 12.8 11.3 11.9 94 0.5 W 11 17 6 9 1024.3 - 2.0
26/07:22am 13.1 11.6 12.0 93 0.6 W 11 15 6 8 1024.4 - 1.8
26/07:00am 13.4 11.6 12.1 92 0.7 NW 13 17 7 9 1024.1 1024.1 1.2
26/06:53am 13.6 11.8 12.1 91 0.8 NW 13 19 7 10 1024.0 - 1.2
26/06:30am 13.3 11.5 12.0 92 0.7 NW 13 17 7 9 1023.7 - 0.8
26/06:00am 13.7 11.9 12.0 89 0.9 NNW 13 17 7 9 1023.2 1023.2 0.6
26/05:30am 13.6 11.1 11.1 85 1.3 NNW 15 19 8 10 1023.3 - 0.6
26/05:00am 13.9 12.8 10.8 81 1.6 NW 7 15 4 8 1022.4 1022.4 0.4
26/04:30am 13.8 12.2 10.1 78 1.9 NW 9 13 5 7 1022.0 - 0.4
26/04:00am 14.0 12.4 10.1 77 2.0 N 9 13 5 7 1021.9 1021.9 0.4
26/03:30am 13.8 11.5 10.3 79 1.8 W 13 17 7 9 1022.0 - 0.4
26/03:00am 13.4 11.5 10.5 82 1.5 SW 11 13 6 7 1021.9 1021.9 0.4
26/02:30am 14.3 12.0 10.3 77 2.1 NNW 13 15 7 8 1022.3 - 0.4
26/02:00am 14.8 12.8 10.2 74 2.4 N 11 13 6 7 1022.2 1022.2 0.4
26/01:30am 15.5 14.3 10.3 71 2.7 NNW 7 9 4 5 1022.4 - 0.4
26/01:00am 15.4 14.2 10.2 71 2.7 NNE 7 9 4 5 1022.4 1022.4 0.4
26/12:30am 15.9 14.7 10.4 70 2.9 NNE 7 9 4 5 1022.7 - 0.4
26/12:00am 16.4 14.4 10.1 66 3.3 N 11 13 6 7 1022.7 1022.7 0.4
 
Date/Time
EST
Tmp

°C
App
Tmp
°C
Dew
Point
°C
Rel
Hum
%
Delta-T

°C
Wind Press
QNH
hPa
Press
MSL
hPa
Rain
since
9 am
mm
Dir
 
Spd
km/h
Gust
km/h
Spd
kts
Gust
kts
25/11:30pm 16.4 13.6 9.9 65 3.4 NNE 15 15 8 8 1022.7 - 0.4
25/11:00pm 17.5 14.5 9.4 59 4.2 NNE 15 17 8 9 1022.6 1022.6 0.4
25/10:30pm 17.5 14.5 9.4 59 4.2 NNE 15 17 8 9 1022.6 - 0.4
25/10:00pm 17.6 15.4 9.3 58 4.3 NNE 11 13 6 7 1022.4 1022.4 0.4
25/09:30pm 17.9 14.8 9.0 56 4.6 NNE 15 17 8 9 1022.5 - 0.4
25/09:00pm 18.1 14.2 8.8 54 4.8 NNE 19 22 10 12 1022.5 1022.5 0.4
25/08:30pm 18.2 14.4 8.9 54 4.8 N 19 22 10 12 1022.2 - 0.4

Latest Capital City Observations: Canberra | Sydney | Melbourne | Brisbane | Adelaide | Perth | Hobart | Darwin

Other Formats:

Comma delimited format used in spreadsheet applications
http://www.bom.gov.au/fwo/IDN60901/IDN60901.94767.axf

JavaScript Object Notation format (JSON) in row-major order
http://www.bom.gov.au/fwo/IDN60901/IDN60901.94767.json